sensor_id;sensor_type;location;lat;lon;timestamp;temperature;humidity
46652;DHT22;32377;52.182;5.398;2022-12-29T00:02:07;10.40;99.90
46652;DHT22;32377;52.182;5.398;2022-12-29T00:04:33;10.40;99.90
46652;DHT22;32377;52.182;5.398;2022-12-29T00:06:58;10.40;99.90
46652;DHT22;32377;52.182;5.398;2022-12-29T00:09:25;10.50;99.90
46652;DHT22;32377;52.182;5.398;2022-12-29T00:11:51;10.50;99.90
46652;DHT22;32377;52.182;5.398;2022-12-29T00:14:16;10.50;99.90
46652;DHT22;32377;52.182;5.398;2022-12-29T00:17:01;10.60;99.90
46652;DHT22;32377;52.182;5.398;2022-12-29T00:19:27;10.60;99.90
46652;DHT22;32377;52.182;5.398;2022-12-29T00:22:13;10.60;99.90
46652;DHT22;32377;52.182;5.398;2022-12-29T00:24:58;10.60;99.90
46652;DHT22;32377;52.182;5.398;2022-12-29T00:27:28;10.50;99.90
46652;DHT22;32377;52.182;5.398;2022-12-29T00:30:14;10.60;99.90
46652;DHT22;32377;52.182;5.398;2022-12-29T00:32:59;10.60;99.90
46652;DHT22;32377;52.182;5.398;2022-12-29T00:35:51;10.70;99.90
46652;DHT22;32377;52.182;5.398;2022-12-29T00:38:18;10.60;99.90
46652;DHT22;32377;52.182;5.398;2022-12-29T00:41:02;10.70;99.90
46652;DHT22;32377;52.182;5.398;2022-12-29T00:43:46;10.70;99.90
46652;DHT22;32377;52.182;5.398;2022-12-29T00:46:31;10.70;99.90
46652;DHT22;32377;52.182;5.398;2022-12-29T00:48:57;10.70;99.90
46652;DHT22;32377;52.182;5.398;2022-12-29T00:51:41;10.70;99.90
46652;DHT22;32377;52.182;5.398;2022-12-29T00:54:07;10.70;99.90
46652;DHT22;32377;52.182;5.398;2022-12-29T00:56:33;10.80;99.90
46652;DHT22;32377;52.182;5.398;2022-12-29T00:59:06;10.80;99.90
46652;DHT22;32377;52.182;5.398;2022-12-29T01:01:33;10.80;99.90
46652;DHT22;32377;52.182;5.398;2022-12-29T01:03:58;10.80;99.90
46652;DHT22;32377;52.182;5.398;2022-12-29T01:06:24;10.80;99.90
46652;DHT22;32377;52.182;5.398;2022-12-29T01:08:50;10.80;99.90
46652;DHT22;32377;52.182;5.398;2022-12-29T01:11:37;10.80;99.90
46652;DHT22;32377;52.182;5.398;2022-12-29T01:14:03;10.70;99.90
46652;DHT22;32377;52.182;5.398;2022-12-29T01:16:29;10.70;99.90
46652;DHT22;32377;52.182;5.398;2022-12-29T01:18:54;10.80;99.90
46652;DHT22;32377;52.182;5.398;2022-12-29T01:21:20;10.70;99.90
46652;DHT22;32377;52.182;5.398;2022-12-29T01:23:46;10.70;99.90
46652;DHT22;32377;52.182;5.398;2022-12-29T01:26:13;10.70;99.90
46652;DHT22;32377;52.182;5.398;2022-12-29T01:28:39;10.70;99.90
46652;DHT22;32377;52.182;5.398;2022-12-29T01:31:06;10.60;99.90
46652;DHT22;32377;52.182;5.398;2022-12-29T01:33:32;10.50;99.90
46652;DHT22;32377;52.182;5.398;2022-12-29T01:36:02;10.40;99.90
46652;DHT22;32377;52.182;5.398;2022-12-29T01:38:28;10.30;99.90
46652;DHT22;32377;52.182;5.398;2022-12-29T01:40:53;10.30;99.90
46652;DHT22;32377;52.182;5.398;2022-12-29T01:43:19;10.20;99.90
46652;DHT22;32377;52.182;5.398;2022-12-29T01:45:49;10.20;99.90
46652;DHT22;32377;52.182;5.398;2022-12-29T01:48:17;10.20;99.90
46652;DHT22;32377;52.182;5.398;2022-12-29T01:50:53;10.20;99.90
46652;DHT22;32377;52.182;5.398;2022-12-29T01:53:28;10.10;99.90
46652;DHT22;32377;52.182;5.398;2022-12-29T01:56:00;10.10;99.90
46652;DHT22;32377;52.182;5.398;2022-12-29T01:58:30;10.20;99.90
46652;DHT22;32377;52.182;5.398;2022-12-29T02:00:57;10.20;99.90
46652;DHT22;32377;52.182;5.398;2022-12-29T02:03:27;10.10;99.90
46652;DHT22;32377;52.182;5.398;2022-12-29T02:06:02;10.10;99.90
46652;DHT22;32377;52.182;5.398;2022-12-29T02:08:30;10.10;99.90
46652;DHT22;32377;52.182;5.398;2022-12-29T02:10:56;10.20;99.90
46652;DHT22;32377;52.182;5.398;2022-12-29T02:13:27;10.10;99.90
46652;DHT22;32377;52.182;5.398;2022-12-29T02:27:09;10.20;99.90
46652;DHT22;32377;52.182;5.398;2022-12-29T02:50:08;10.10;99.90
46652;DHT22;32377;52.182;5.398;2022-12-29T02:53:02;10.10;99.90
46652;DHT22;32377;52.182;5.398;2022-12-29T02:55:28;10.20;99.90
46652;DHT22;32377;52.182;5.398;2022-12-29T02:58:26;10.20;99.90
46652;DHT22;32377;52.182;5.398;2022-12-29T03:03:49;10.20;99.90
46652;DHT22;32377;52.182;5.398;2022-12-29T03:09:26;10.20;99.90
46652;DHT22;32377;52.182;5.398;2022-12-29T03:15:02;10.20;99.90
46652;DHT22;32377;52.182;5.398;2022-12-29T03:18:43;10.10;99.90
46652;DHT22;32377;52.182;5.398;2022-12-29T03:20:55;10.20;99.90
46652;DHT22;32377;52.182;5.398;2022-12-29T03:23:22;10.10;99.90
46652;DHT22;32377;52.182;5.398;2022-12-29T03:25:51;10.10;99.90
46652;DHT22;32377;52.182;5.398;2022-12-29T03:28:35;10.20;99.90
46652;DHT22;32377;52.182;5.398;2022-12-29T03:31:04;10.10;99.90
46652;DHT22;32377;52.182;5.398;2022-12-29T03:33:32;10.10;99.90
46652;DHT22;32377;52.182;5.398;2022-12-29T03:36:01;10.10;99.90
46652;DHT22;32377;52.182;5.398;2022-12-29T03:38:44;10.00;99.90
46652;DHT22;32377;52.182;5.398;2022-12-29T03:41:14;10.00;99.90
46652;DHT22;32377;52.182;5.398;2022-12-29T03:43:41;9.90;99.90
46652;DHT22;32377;52.182;5.398;2022-12-29T03:46:06;9.90;99.90
46652;DHT22;32377;52.182;5.398;2022-12-29T03:48:32;9.80;99.90
46652;DHT22;32377;52.182;5.398;2022-12-29T03:50:58;9.80;99.90
46652;DHT22;32377;52.182;5.398;2022-12-29T03:53:24;9.80;99.90
46652;DHT22;32377;52.182;5.398;2022-12-29T03:55:50;9.80;99.90
46652;DHT22;32377;52.182;5.398;2022-12-29T03:58:16;9.80;99.90
46652;DHT22;32377;52.182;5.398;2022-12-29T04:00:41;9.90;99.90
46652;DHT22;32377;52.182;5.398;2022-12-29T04:03:07;9.80;99.90
46652;DHT22;32377;52.182;5.398;2022-12-29T04:05:32;9.80;99.90
46652;DHT22;32377;52.182;5.398;2022-12-29T04:07:58;9.70;99.90
46652;DHT22;32377;52.182;5.398;2022-12-29T04:10:24;9.70;99.90
46652;DHT22;32377;52.182;5.398;2022-12-29T04:12:49;9.70;99.90
46652;DHT22;32377;52.182;5.398;2022-12-29T04:15:15;9.70;99.90
46652;DHT22;32377;52.182;5.398;2022-12-29T04:17:40;9.70;99.90
46652;DHT22;32377;52.182;5.398;2022-12-29T04:20:06;9.70;99.90
46652;DHT22;32377;52.182;5.398;2022-12-29T04:23:01;9.70;99.90
46652;DHT22;32377;52.182;5.398;2022-12-29T04:25:26;9.70;99.90
46652;DHT22;32377;52.182;5.398;2022-12-29T04:27:52;9.70;99.90
46652;DHT22;32377;52.182;5.398;2022-12-29T04:30:17;9.70;99.90
46652;DHT22;32377;52.182;5.398;2022-12-29T04:32:43;9.70;99.90
46652;DHT22;32377;52.182;5.398;2022-12-29T04:35:09;9.70;99.90
46652;DHT22;32377;52.182;5.398;2022-12-29T04:37:34;9.70;99.90
46652;DHT22;32377;52.182;5.398;2022-12-29T04:40:00;9.80;99.90
46652;DHT22;32377;52.182;5.398;2022-12-29T04:42:25;9.90;99.90
46652;DHT22;32377;52.182;5.398;2022-12-29T04:44:51;9.90;99.90
46652;DHT22;32377;52.182;5.398;2022-12-29T04:47:16;9.90;99.90
46652;DHT22;32377;52.182;5.398;2022-12-29T04:49:42;9.90;99.90
46652;DHT22;32377;52.182;5.398;2022-12-29T04:52:08;9.90;99.90
46652;DHT22;32377;52.182;5.398;2022-12-29T04:54:34;10.00;99.90
46652;DHT22;32377;52.182;5.398;2022-12-29T04:56:59;10.00;99.90
46652;DHT22;32377;52.182;5.398;2022-12-29T04:59:25;9.90;99.90
46652;DHT22;32377;52.182;5.398;2022-12-29T05:01:51;9.90;99.90
46652;DHT22;32377;52.182;5.398;2022-12-29T05:04:17;9.90;99.90
46652;DHT22;32377;52.182;5.398;2022-12-29T05:06:42;9.80;99.90
46652;DHT22;32377;52.182;5.398;2022-12-29T05:09:08;9.80;99.90
46652;DHT22;32377;52.182;5.398;2022-12-29T05:11:33;9.70;99.90
46652;DHT22;32377;52.182;5.398;2022-12-29T05:13:59;9.80;99.90
46652;DHT22;32377;52.182;5.398;2022-12-29T05:16:25;9.70;99.90
46652;DHT22;32377;52.182;5.398;2022-12-29T05:18:50;9.80;99.90
46652;DHT22;32377;52.182;5.398;2022-12-29T05:21:16;9.80;99.90
46652;DHT22;32377;52.182;5.398;2022-12-29T05:23:41;9.70;99.90
46652;DHT22;32377;52.182;5.398;2022-12-29T05:26:07;9.70;99.90
46652;DHT22;32377;52.182;5.398;2022-12-29T05:28:32;9.80;99.90
46652;DHT22;32377;52.182;5.398;2022-12-29T05:30:58;9.80;99.90
46652;DHT22;32377;52.182;5.398;2022-12-29T05:33:24;9.80;99.90
46652;DHT22;32377;52.182;5.398;2022-12-29T05:35:49;9.80;99.90
46652;DHT22;32377;52.182;5.398;2022-12-29T05:38:15;9.80;99.90
46652;DHT22;32377;52.182;5.398;2022-12-29T05:40:40;9.70;99.90
46652;DHT22;32377;52.182;5.398;2022-12-29T05:43:06;9.70;99.90
46652;DHT22;32377;52.182;5.398;2022-12-29T05:45:31;9.60;99.90
46652;DHT22;32377;52.182;5.398;2022-12-29T05:47:57;9.60;99.90
46652;DHT22;32377;52.182;5.398;2022-12-29T05:50:22;9.50;99.90
46652;DHT22;32377;52.182;5.398;2022-12-29T05:52:48;9.50;99.90
46652;DHT22;32377;52.182;5.398;2022-12-29T05:55:14;9.40;99.90
46652;DHT22;32377;52.182;5.398;2022-12-29T05:57:40;9.40;99.90
46652;DHT22;32377;52.182;5.398;2022-12-29T06:00:06;9.40;99.90
46652;DHT22;32377;52.182;5.398;2022-12-29T06:02:32;9.40;99.90
46652;DHT22;32377;52.182;5.398;2022-12-29T06:04:58;9.30;99.90
46652;DHT22;32377;52.182;5.398;2022-12-29T06:07:23;9.30;99.90
46652;DHT22;32377;52.182;5.398;2022-12-29T06:09:49;9.40;99.90
46652;DHT22;32377;52.182;5.398;2022-12-29T06:12:14;9.30;99.90
46652;DHT22;32377;52.182;5.398;2022-12-29T06:14:40;9.40;99.90
46652;DHT22;32377;52.182;5.398;2022-12-29T06:17:06;9.30;99.90
46652;DHT22;32377;52.182;5.398;2022-12-29T06:19:31;9.30;99.90
46652;DHT22;32377;52.182;5.398;2022-12-29T06:21:57;9.30;99.90
46652;DHT22;32377;52.182;5.398;2022-12-29T06:24:22;9.30;99.90
46652;DHT22;32377;52.182;5.398;2022-12-29T06:26:48;9.30;99.90
46652;DHT22;32377;52.182;5.398;2022-12-29T06:29:13;9.30;99.90
46652;DHT22;32377;52.182;5.398;2022-12-29T06:31:43;9.30;99.90
46652;DHT22;32377;52.182;5.398;2022-12-29T06:34:11;9.30;99.90
46652;DHT22;32377;52.182;5.398;2022-12-29T06:36:36;9.30;99.90
46652;DHT22;32377;52.182;5.398;2022-12-29T06:39:02;9.20;99.90
46652;DHT22;32377;52.182;5.398;2022-12-29T06:41:28;9.10;99.90
46652;DHT22;32377;52.182;5.398;2022-12-29T06:43:53;9.10;99.90
46652;DHT22;32377;52.182;5.398;2022-12-29T06:46:19;9.00;99.90
46652;DHT22;32377;52.182;5.398;2022-12-29T06:48:44;8.90;99.90
46652;DHT22;32377;52.182;5.398;2022-12-29T06:51:10;8.90;99.90
46652;DHT22;32377;52.182;5.398;2022-12-29T06:53:35;8.90;99.90
46652;DHT22;32377;52.182;5.398;2022-12-29T06:56:01;8.90;99.90
46652;DHT22;32377;52.182;5.398;2022-12-29T06:58:27;8.90;99.90
46652;DHT22;32377;52.182;5.398;2022-12-29T07:00:52;8.90;99.90
46652;DHT22;32377;52.182;5.398;2022-12-29T07:03:18;8.90;99.90
46652;DHT22;32377;52.182;5.398;2022-12-29T07:05:43;8.90;99.90
46652;DHT22;32377;52.182;5.398;2022-12-29T07:08:09;8.90;99.90
46652;DHT22;32377;52.182;5.398;2022-12-29T07:10:34;9.10;99.90
46652;DHT22;32377;52.182;5.398;2022-12-29T07:13:00;9.10;99.90
46652;DHT22;32377;52.182;5.398;2022-12-29T07:15:26;9.20;99.90
46652;DHT22;32377;52.182;5.398;2022-12-29T07:17:51;9.10;99.90
46652;DHT22;32377;52.182;5.398;2022-12-29T07:20:17;9.10;99.90
46652;DHT22;32377;52.182;5.398;2022-12-29T07:22:43;9.00;99.90
46652;DHT22;32377;52.182;5.398;2022-12-29T07:25:08;9.00;99.90
46652;DHT22;32377;52.182;5.398;2022-12-29T07:27:34;8.80;99.90
46652;DHT22;32377;52.182;5.398;2022-12-29T07:30:00;8.80;99.90
46652;DHT22;32377;52.182;5.398;2022-12-29T07:32:25;8.70;99.90
46652;DHT22;32377;52.182;5.398;2022-12-29T07:34:51;8.70;99.90
46652;DHT22;32377;52.182;5.398;2022-12-29T07:37:17;8.70;99.90
46652;DHT22;32377;52.182;5.398;2022-12-29T07:39:42;8.60;99.90
46652;DHT22;32377;52.182;5.398;2022-12-29T07:42:08;8.60;99.90
46652;DHT22;32377;52.182;5.398;2022-12-29T07:44:34;8.60;99.90
46652;DHT22;32377;52.182;5.398;2022-12-29T07:46:59;8.70;99.90
46652;DHT22;32377;52.182;5.398;2022-12-29T07:49:25;8.80;99.90
46652;DHT22;32377;52.182;5.398;2022-12-29T07:51:51;8.80;99.90
46652;DHT22;32377;52.182;5.398;2022-12-29T07:54:16;8.80;99.90
46652;DHT22;32377;52.182;5.398;2022-12-29T07:56:45;8.80;99.90
46652;DHT22;32377;52.182;5.398;2022-12-29T07:59:10;8.90;99.90
46652;DHT22;32377;52.182;5.398;2022-12-29T08:01:38;8.80;99.90
46652;DHT22;32377;52.182;5.398;2022-12-29T08:04:03;8.80;99.90
46652;DHT22;32377;52.182;5.398;2022-12-29T08:06:29;8.70;99.90
46652;DHT22;32377;52.182;5.398;2022-12-29T08:08:56;8.70;99.90
46652;DHT22;32377;52.182;5.398;2022-12-29T08:11:22;8.80;99.90
46652;DHT22;32377;52.182;5.398;2022-12-29T08:13:47;8.80;99.90
46652;DHT22;32377;52.182;5.398;2022-12-29T08:16:13;8.80;99.90
46652;DHT22;32377;52.182;5.398;2022-12-29T08:18:39;8.90;99.90
46652;DHT22;32377;52.182;5.398;2022-12-29T08:21:05;8.90;99.90
46652;DHT22;32377;52.182;5.398;2022-12-29T08:23:31;8.90;99.90
46652;DHT22;32377;52.182;5.398;2022-12-29T08:26:02;9.00;99.90
46652;DHT22;32377;52.182;5.398;2022-12-29T08:28:28;9.00;99.90
46652;DHT22;32377;52.182;5.398;2022-12-29T08:30:56;9.00;99.90
46652;DHT22;32377;52.182;5.398;2022-12-29T08:33:22;9.10;99.90
46652;DHT22;32377;52.182;5.398;2022-12-29T08:35:48;9.10;99.90
46652;DHT22;32377;52.182;5.398;2022-12-29T08:38:13;9.20;99.90
46652;DHT22;32377;52.182;5.398;2022-12-29T08:40:39;9.20;99.90
46652;DHT22;32377;52.182;5.398;2022-12-29T08:43:04;9.30;99.90
46652;DHT22;32377;52.182;5.398;2022-12-29T08:45:30;9.40;99.90
46652;DHT22;32377;52.182;5.398;2022-12-29T08:47:56;9.40;99.90
46652;DHT22;32377;52.182;5.398;2022-12-29T08:50:21;9.40;99.90
46652;DHT22;32377;52.182;5.398;2022-12-29T08:52:47;9.40;99.90
46652;DHT22;32377;52.182;5.398;2022-12-29T08:55:13;9.30;99.90
46652;DHT22;32377;52.182;5.398;2022-12-29T08:57:38;9.30;99.90
46652;DHT22;32377;52.182;5.398;2022-12-29T09:00:05;9.30;99.90
46652;DHT22;32377;52.182;5.398;2022-12-29T09:02:31;9.30;99.90
46652;DHT22;32377;52.182;5.398;2022-12-29T09:04:56;9.30;99.90
46652;DHT22;32377;52.182;5.398;2022-12-29T09:07:26;9.30;99.90
46652;DHT22;32377;52.182;5.398;2022-12-29T09:09:51;9.20;99.90
46652;DHT22;32377;52.182;5.398;2022-12-29T09:12:17;9.30;99.90
46652;DHT22;32377;52.182;5.398;2022-12-29T09:14:45;9.30;99.90
46652;DHT22;32377;52.182;5.398;2022-12-29T09:17:11;9.30;99.90
46652;DHT22;32377;52.182;5.398;2022-12-29T09:19:55;9.30;99.90
46652;DHT22;32377;52.182;5.398;2022-12-29T09:22:20;9.40;99.90
46652;DHT22;32377;52.182;5.398;2022-12-29T09:24:46;9.40;99.90
46652;DHT22;32377;52.182;5.398;2022-12-29T09:27:12;9.40;99.90
46652;DHT22;32377;52.182;5.398;2022-12-29T09:29:37;9.40;99.90
46652;DHT22;32377;52.182;5.398;2022-12-29T09:32:03;9.30;99.90
46652;DHT22;32377;52.182;5.398;2022-12-29T09:34:29;9.30;99.90
46652;DHT22;32377;52.182;5.398;2022-12-29T09:36:55;9.30;99.90
46652;DHT22;32377;52.182;5.398;2022-12-29T09:39:22;9.20;99.90
46652;DHT22;32377;52.182;5.398;2022-12-29T09:42:08;9.10;99.90
46652;DHT22;32377;52.182;5.398;2022-12-29T09:45:14;9.10;99.90
46652;DHT22;32377;52.182;5.398;2022-12-29T09:47:42;9.10;99.90
46652;DHT22;32377;52.182;5.398;2022-12-29T09:50:32;9.10;99.90
46652;DHT22;32377;52.182;5.398;2022-12-29T09:53:03;9.00;99.90
46652;DHT22;32377;52.182;5.398;2022-12-29T09:55:44;9.00;99.90
46652;DHT22;32377;52.182;5.398;2022-12-29T09:58:17;9.00;99.90
46652;DHT22;32377;52.182;5.398;2022-12-29T10:00:52;8.90;99.90
46652;DHT22;32377;52.182;5.398;2022-12-29T10:03:20;8.90;99.90
46652;DHT22;32377;52.182;5.398;2022-12-29T10:08:39;8.90;99.90
46652;DHT22;32377;52.182;5.398;2022-12-29T10:11:41;8.80;99.90
46652;DHT22;32377;52.182;5.398;2022-12-29T10:14:27;8.90;99.90
46652;DHT22;32377;52.182;5.398;2022-12-29T10:17:01;8.90;99.90
46652;DHT22;32377;52.182;5.398;2022-12-29T10:19:31;8.90;99.90
46652;DHT22;32377;52.182;5.398;2022-12-29T10:22:19;8.90;99.90
46652;DHT22;32377;52.182;5.398;2022-12-29T10:24:47;8.90;99.90
46652;DHT22;32377;52.182;5.398;2022-12-29T10:27:15;8.90;99.90
46652;DHT22;32377;52.182;5.398;2022-12-29T10:29:53;8.90;99.90
46652;DHT22;32377;52.182;5.398;2022-12-29T10:32:33;8.90;99.90
46652;DHT22;32377;52.182;5.398;2022-12-29T10:35:22;9.00;99.90
46652;DHT22;32377;52.182;5.398;2022-12-29T10:37:58;9.10;99.90
46652;DHT22;32377;52.182;5.398;2022-12-29T10:40:28;9.20;99.90
46652;DHT22;32377;52.182;5.398;2022-12-29T10:42:57;9.20;99.90
46652;DHT22;32377;52.182;5.398;2022-12-29T10:45:27;9.20;99.90
46652;DHT22;32377;52.182;5.398;2022-12-29T10:47:59;9.20;99.90
46652;DHT22;32377;52.182;5.398;2022-12-29T10:50:26;9.10;99.90
46652;DHT22;32377;52.182;5.398;2022-12-29T10:52:55;9.10;99.90
46652;DHT22;32377;52.182;5.398;2022-12-29T10:55:26;9.10;99.90
46652;DHT22;32377;52.182;5.398;2022-12-29T10:57:56;9.00;99.90
46652;DHT22;32377;52.182;5.398;2022-12-29T11:00:25;9.00;99.90
46652;DHT22;32377;52.182;5.398;2022-12-29T11:06:18;9.10;99.90
46652;DHT22;32377;52.182;5.398;2022-12-29T11:08:54;9.20;99.90
46652;DHT22;32377;52.182;5.398;2022-12-29T11:11:27;9.30;99.90
46652;DHT22;32377;52.182;5.398;2022-12-29T11:14:10;9.20;99.90
46652;DHT22;32377;52.182;5.398;2022-12-29T11:16:37;9.10;99.90
46652;DHT22;32377;52.182;5.398;2022-12-29T11:19:02;9.20;99.90
46652;DHT22;32377;52.182;5.398;2022-12-29T11:21:38;9.10;99.90
46652;DHT22;32377;52.182;5.398;2022-12-29T11:24:28;9.10;99.90
46652;DHT22;32377;52.182;5.398;2022-12-29T11:27:16;9.10;99.90
46652;DHT22;32377;52.182;5.398;2022-12-29T11:29:42;9.10;99.90
46652;DHT22;32377;52.182;5.398;2022-12-29T11:32:24;9.10;99.90
46652;DHT22;32377;52.182;5.398;2022-12-29T11:34:50;9.10;99.90
46652;DHT22;32377;52.182;5.398;2022-12-29T11:37:26;9.10;99.90
46652;DHT22;32377;52.182;5.398;2022-12-29T11:39:56;9.20;99.90
46652;DHT22;32377;52.182;5.398;2022-12-29T11:42:39;9.30;99.90
46652;DHT22;32377;52.182;5.398;2022-12-29T11:47:50;9.50;99.90
46652;DHT22;32377;52.182;5.398;2022-12-29T11:50:22;9.50;99.90
46652;DHT22;32377;52.182;5.398;2022-12-29T11:52:51;9.50;99.90
46652;DHT22;32377;52.182;5.398;2022-12-29T11:55:24;9.60;99.90
46652;DHT22;32377;52.182;5.398;2022-12-29T11:57:52;9.80;99.90
46652;DHT22;32377;52.182;5.398;2022-12-29T12:00:21;9.80;99.90
46652;DHT22;32377;52.182;5.398;2022-12-29T12:03:01;9.90;99.90
46652;DHT22;32377;52.182;5.398;2022-12-29T12:05:30;10.00;99.90
46652;DHT22;32377;52.182;5.398;2022-12-29T12:08:03;10.00;99.90
46652;DHT22;32377;52.182;5.398;2022-12-29T12:10:33;9.90;99.90
46652;DHT22;32377;52.182;5.398;2022-12-29T12:16:41;9.70;99.90
46652;DHT22;32377;52.182;5.398;2022-12-29T12:19:34;9.70;99.90
46652;DHT22;32377;52.182;5.398;2022-12-29T12:22:19;9.60;99.90
46652;DHT22;32377;52.182;5.398;2022-12-29T12:25:11;9.60;99.90
46652;DHT22;32377;52.182;5.398;2022-12-29T12:27:46;9.60;99.90
46652;DHT22;32377;52.182;5.398;2022-12-29T12:32:42;9.50;99.90
46652;DHT22;32377;52.182;5.398;2022-12-29T12:35:43;9.50;99.90
46652;DHT22;32377;52.182;5.398;2022-12-29T12:41:09;9.50;99.90
46652;DHT22;32377;52.182;5.398;2022-12-29T12:43:49;9.40;99.90
46652;DHT22;32377;52.182;5.398;2022-12-29T12:49:21;9.50;99.90
46652;DHT22;32377;52.182;5.398;2022-12-29T12:58:14;9.40;99.90
46652;DHT22;32377;52.182;5.398;2022-12-29T13:06:35;9.60;99.90
46652;DHT22;32377;52.182;5.398;2022-12-29T13:09:28;9.70;99.90
46652;DHT22;32377;52.182;5.398;2022-12-29T13:15:03;9.70;99.90
46652;DHT22;32377;52.182;5.398;2022-12-29T13:18:02;9.70;99.90
46652;DHT22;32377;52.182;5.398;2022-12-29T13:26:08;9.70;99.90
46652;DHT22;32377;52.182;5.398;2022-12-29T13:29:12;9.70;99.90
46652;DHT22;32377;52.182;5.398;2022-12-29T13:34:38;9.60;99.90
46652;DHT22;32377;52.182;5.398;2022-12-29T13:37:17;9.60;99.90
46652;DHT22;32377;52.182;5.398;2022-12-29T13:39:54;9.60;99.90
46652;DHT22;32377;52.182;5.398;2022-12-29T13:42:21;9.60;99.90
46652;DHT22;32377;52.182;5.398;2022-12-29T13:44:54;9.60;99.90
46652;DHT22;32377;52.182;5.398;2022-12-29T13:47:36;9.70;99.90
46652;DHT22;32377;52.182;5.398;2022-12-29T13:50:08;9.70;99.90
46652;DHT22;32377;52.182;5.398;2022-12-29T14:00:25;9.60;99.90
46652;DHT22;32377;52.182;5.398;2022-12-29T14:03:12;9.60;99.90
46652;DHT22;32377;52.182;5.398;2022-12-29T14:05:44;9.60;99.90
46652;DHT22;32377;52.182;5.398;2022-12-29T14:08:16;9.60;99.90
46652;DHT22;32377;52.182;5.398;2022-12-29T14:10:50;9.60;99.90
46652;DHT22;32377;52.182;5.398;2022-12-29T14:13:25;9.60;99.90
46652;DHT22;32377;52.182;5.398;2022-12-29T14:15:53;9.50;99.90
46652;DHT22;32377;52.182;5.398;2022-12-29T14:18:22;9.50;99.90
46652;DHT22;32377;52.182;5.398;2022-12-29T14:21:10;9.10;99.90
46652;DHT22;32377;52.182;5.398;2022-12-29T14:23:46;8.90;99.90
46652;DHT22;32377;52.182;5.398;2022-12-29T14:26:34;8.80;99.90
46652;DHT22;32377;52.182;5.398;2022-12-29T14:34:59;8.70;99.90
46652;DHT22;32377;52.182;5.398;2022-12-29T14:37:30;8.60;99.90
46652;DHT22;32377;52.182;5.398;2022-12-29T14:42:41;8.50;99.90
46652;DHT22;32377;52.182;5.398;2022-12-29T14:47:44;8.40;99.90
46652;DHT22;32377;52.182;5.398;2022-12-29T14:52:56;8.40;99.90
46652;DHT22;32377;52.182;5.398;2022-12-29T14:58:32;8.40;99.90
46652;DHT22;32377;52.182;5.398;2022-12-29T15:00:59;8.30;99.90
46652;DHT22;32377;52.182;5.398;2022-12-29T15:03:29;8.30;99.90
46652;DHT22;32377;52.182;5.398;2022-12-29T15:06:06;8.40;99.90
46652;DHT22;32377;52.182;5.398;2022-12-29T15:08:38;8.40;99.90
46652;DHT22;32377;52.182;5.398;2022-12-29T15:13:45;8.40;99.90
46652;DHT22;32377;52.182;5.398;2022-12-29T15:16:30;8.40;99.90
46652;DHT22;32377;52.182;5.398;2022-12-29T15:18:57;8.40;99.90
46652;DHT22;32377;52.182;5.398;2022-12-29T15:21:29;8.40;99.90
46652;DHT22;32377;52.182;5.398;2022-12-29T15:23:55;8.30;99.90
46652;DHT22;32377;52.182;5.398;2022-12-29T15:26:22;8.40;99.90
46652;DHT22;32377;52.182;5.398;2022-12-29T15:28:50;8.50;99.90
46652;DHT22;32377;52.182;5.398;2022-12-29T15:31:24;8.50;99.90
46652;DHT22;32377;52.182;5.398;2022-12-29T15:33:55;8.50;99.90
46652;DHT22;32377;52.182;5.398;2022-12-29T15:36:28;8.50;99.90
46652;DHT22;32377;52.182;5.398;2022-12-29T15:38:54;8.50;99.90
46652;DHT22;32377;52.182;5.398;2022-12-29T15:41:44;8.50;99.90
46652;DHT22;32377;52.182;5.398;2022-12-29T15:44:34;8.50;99.90
46652;DHT22;32377;52.182;5.398;2022-12-29T15:47:04;8.50;99.90
46652;DHT22;32377;52.182;5.398;2022-12-29T15:49:31;8.50;99.90
46652;DHT22;32377;52.182;5.398;2022-12-29T15:51:58;8.50;99.90
46652;DHT22;32377;52.182;5.398;2022-12-29T15:54:24;8.50;99.90
46652;DHT22;32377;52.182;5.398;2022-12-29T15:56:51;8.60;99.90
46652;DHT22;32377;52.182;5.398;2022-12-29T15:59:26;8.60;99.90
46652;DHT22;32377;52.182;5.398;2022-12-29T16:01:54;8.60;99.90
46652;DHT22;32377;52.182;5.398;2022-12-29T16:04:21;8.60;99.90
46652;DHT22;32377;52.182;5.398;2022-12-29T16:07:00;8.60;99.90
46652;DHT22;32377;52.182;5.398;2022-12-29T16:09:42;8.60;99.90
46652;DHT22;32377;52.182;5.398;2022-12-29T16:12:20;8.70;99.90
46652;DHT22;32377;52.182;5.398;2022-12-29T16:14:49;8.60;99.90
46652;DHT22;32377;52.182;5.398;2022-12-29T16:17:20;8.60;99.90
46652;DHT22;32377;52.182;5.398;2022-12-29T16:20:03;8.60;99.90
46652;DHT22;32377;52.182;5.398;2022-12-29T16:22:38;8.60;99.90
46652;DHT22;32377;52.182;5.398;2022-12-29T16:25:26;8.60;99.90
46652;DHT22;32377;52.182;5.398;2022-12-29T16:27:53;8.70;99.90
46652;DHT22;32377;52.182;5.398;2022-12-29T16:30:25;8.70;99.90
46652;DHT22;32377;52.182;5.398;2022-12-29T16:32:54;8.60;99.90
46652;DHT22;32377;52.182;5.398;2022-12-29T16:35:38;8.60;99.90
46652;DHT22;32377;52.182;5.398;2022-12-29T16:38:20;8.60;99.90
46652;DHT22;32377;52.182;5.398;2022-12-29T16:40:57;8.50;99.90
46652;DHT22;32377;52.182;5.398;2022-12-29T16:43:36;8.50;99.90
46652;DHT22;32377;52.182;5.398;2022-12-29T16:46:21;8.50;99.90
46652;DHT22;32377;52.182;5.398;2022-12-29T16:48:52;8.50;99.90
46652;DHT22;32377;52.182;5.398;2022-12-29T16:51:28;8.50;99.90
46652;DHT22;32377;52.182;5.398;2022-12-29T16:53:55;8.50;99.90
46652;DHT22;32377;52.182;5.398;2022-12-29T16:56:24;8.40;99.90
46652;DHT22;32377;52.182;5.398;2022-12-29T16:58:56;8.40;99.90
46652;DHT22;32377;52.182;5.398;2022-12-29T17:01:24;8.30;99.90
46652;DHT22;32377;52.182;5.398;2022-12-29T17:04:08;8.30;99.90
46652;DHT22;32377;52.182;5.398;2022-12-29T17:06:34;8.20;99.90
46652;DHT22;32377;52.182;5.398;2022-12-29T17:09:00;8.20;99.90
46652;DHT22;32377;52.182;5.398;2022-12-29T17:11:31;8.10;99.90
46652;DHT22;32377;52.182;5.398;2022-12-29T17:14:18;8.10;99.90
46652;DHT22;32377;52.182;5.398;2022-12-29T17:16:44;8.10;99.90
46652;DHT22;32377;52.182;5.398;2022-12-29T17:19:18;8.00;99.90
46652;DHT22;32377;52.182;5.398;2022-12-29T17:21:44;8.00;99.90
46652;DHT22;32377;52.182;5.398;2022-12-29T17:24:18;8.00;99.90
46652;DHT22;32377;52.182;5.398;2022-12-29T17:26:50;7.90;99.90
46652;DHT22;32377;52.182;5.398;2022-12-29T17:31:55;7.90;99.90
46652;DHT22;32377;52.182;5.398;2022-12-29T17:34:21;7.90;99.90
46652;DHT22;32377;52.182;5.398;2022-12-29T17:36:47;7.90;99.90
46652;DHT22;32377;52.182;5.398;2022-12-29T17:39:13;7.90;99.90
46652;DHT22;32377;52.182;5.398;2022-12-29T17:41:39;7.90;99.90
46652;DHT22;32377;52.182;5.398;2022-12-29T22:59:20;6.80;99.90
46652;DHT22;32377;52.182;5.398;2022-12-29T23:01:46;6.60;99.90
46652;DHT22;32377;52.182;5.398;2022-12-29T23:04:12;6.60;99.90
46652;DHT22;32377;52.182;5.398;2022-12-29T23:06:38;6.60;99.90
46652;DHT22;32377;52.182;5.398;2022-12-29T23:09:04;6.60;99.90
46652;DHT22;32377;52.182;5.398;2022-12-29T23:11:31;6.60;99.90
46652;DHT22;32377;52.182;5.398;2022-12-29T23:13:57;6.50;99.90
46652;DHT22;32377;52.182;5.398;2022-12-29T23:16:24;6.60;99.90